sensor_id;sensor_type;location;lat;lon;timestamp;P1;durP1;ratioP1;P2;durP2;ratioP2
1785;SDS011;890;48.158;11.540;2022-08-01T00:00:25;4.90;;;3.60;;
1785;SDS011;890;48.158;11.540;2022-08-01T00:02:50;4.00;;;3.70;;
1785;SDS011;890;48.158;11.540;2022-08-01T00:05:16;3.73;;;3.53;;
1785;SDS011;890;48.158;11.540;2022-08-01T00:07:42;4.90;;;3.80;;
1785;SDS011;890;48.158;11.540;2022-08-01T00:10:09;4.07;;;3.77;;
1785;SDS011;890;48.158;11.540;2022-08-01T00:12:36;3.63;;;3.40;;
1785;SDS011;890;48.158;11.540;2022-08-01T00:15:03;3.70;;;3.50;;
1785;SDS011;890;48.158;11.540;2022-08-01T00:17:30;3.70;;;3.40;;
1785;SDS011;890;48.158;11.540;2022-08-01T00:19:56;4.30;;;4.00;;
1785;SDS011;890;48.158;11.540;2022-08-01T00:22:21;4.27;;;3.97;;
1785;SDS011;890;48.158;11.540;2022-08-01T00:24:47;3.90;;;3.60;;
1785;SDS011;890;48.158;11.540;2022-08-01T00:27:13;4.20;;;3.90;;
1785;SDS011;890;48.158;11.540;2022-08-01T00:29:38;3.70;;;3.40;;
1785;SDS011;890;48.158;11.540;2022-08-01T00:32:04;4.37;;;4.07;;
1785;SDS011;890;48.158;11.540;2022-08-01T00:34:30;4.27;;;3.87;;
1785;SDS011;890;48.158;11.540;2022-08-01T00:36:55;3.90;;;3.60;;
1785;SDS011;890;48.158;11.540;2022-08-01T00:39:21;4.10;;;3.80;;
1785;SDS011;890;48.158;11.540;2022-08-01T00:41:47;3.90;;;3.50;;
1785;SDS011;890;48.158;11.540;2022-08-01T00:44:12;4.53;;;4.10;;
1785;SDS011;890;48.158;11.540;2022-08-01T00:46:38;4.10;;;3.80;;
1785;SDS011;890;48.158;11.540;2022-08-01T00:49:03;3.60;;;3.30;;
1785;SDS011;890;48.158;11.540;2022-08-01T00:51:29;3.83;;;3.53;;
1785;SDS011;890;48.158;11.540;2022-08-01T00:53:55;4.07;;;3.73;;
1785;SDS011;890;48.158;11.540;2022-08-01T00:56:22;3.73;;;3.53;;
1785;SDS011;890;48.158;11.540;2022-08-01T00:58:50;10.10;;;4.37;;
1785;SDS011;890;48.158;11.540;2022-08-01T01:01:16;4.00;;;3.80;;
1785;SDS011;890;48.158;11.540;2022-08-01T01:03:45;3.90;;;3.60;;
1785;SDS011;890;48.158;11.540;2022-08-01T01:09:17;4.53;;;4.23;;
1785;SDS011;890;48.158;11.540;2022-08-01T01:17:16;4.27;;;3.90;;
1785;SDS011;890;48.158;11.540;2022-08-01T01:19:48;4.23;;;3.77;;
1785;SDS011;890;48.158;11.540;2022-08-01T01:22:24;4.30;;;3.90;;
1785;SDS011;890;48.158;11.540;2022-08-01T01:28:53;5.00;;;3.80;;
1785;SDS011;890;48.158;11.540;2022-08-01T01:30:55;4.73;;;3.67;;
1785;SDS011;890;48.158;11.540;2022-08-01T01:33:23;4.83;;;4.43;;
1785;SDS011;890;48.158;11.540;2022-08-01T01:35:58;3.87;;;3.60;;
1785;SDS011;890;48.158;11.540;2022-08-01T01:38:27;4.20;;;3.90;;
1785;SDS011;890;48.158;11.540;2022-08-01T01:40:57;4.47;;;4.07;;
1785;SDS011;890;48.158;11.540;2022-08-01T01:43:23;6.27;;;4.00;;
1785;SDS011;890;48.158;11.540;2022-08-01T01:45:51;4.20;;;3.80;;
1785;SDS011;890;48.158;11.540;2022-08-01T01:48:18;3.83;;;3.53;;
1785;SDS011;890;48.158;11.540;2022-08-01T01:50:48;4.90;;;3.83;;
1785;SDS011;890;48.158;11.540;2022-08-01T01:53:17;4.20;;;3.90;;
1785;SDS011;890;48.158;11.540;2022-08-01T01:55:45;4.20;;;3.90;;
1785;SDS011;890;48.158;11.540;2022-08-01T01:58:13;4.53;;;4.10;;
1785;SDS011;890;48.158;11.540;2022-08-01T02:00:41;4.10;;;3.80;;
1785;SDS011;890;48.158;11.540;2022-08-01T02:03:09;5.97;;;4.47;;
1785;SDS011;890;48.158;11.540;2022-08-01T02:05:36;4.00;;;3.80;;
1785;SDS011;890;48.158;11.540;2022-08-01T02:08:04;4.30;;;4.00;;
1785;SDS011;890;48.158;11.540;2022-08-01T02:10:30;4.47;;;4.07;;
1785;SDS011;890;48.158;11.540;2022-08-01T02:12:59;3.77;;;3.47;;
1785;SDS011;890;48.158;11.540;2022-08-01T02:15:28;3.90;;;3.60;;
1785;SDS011;890;48.158;11.540;2022-08-01T02:17:56;4.10;;;3.80;;
1785;SDS011;890;48.158;11.540;2022-08-01T02:20:22;4.03;;;3.67;;
1785;SDS011;890;48.158;11.540;2022-08-01T02:22:53;4.23;;;3.83;;
1785;SDS011;890;48.158;11.540;2022-08-01T02:25:24;4.33;;;4.00;;
1785;SDS011;890;48.158;11.540;2022-08-01T02:27:57;4.23;;;3.93;;
1785;SDS011;890;48.158;11.540;2022-08-01T02:30:32;3.90;;;3.60;;
1785;SDS011;890;48.158;11.540;2022-08-01T02:33:08;4.50;;;4.10;;
1785;SDS011;890;48.158;11.540;2022-08-01T02:35:41;3.87;;;3.57;;
1785;SDS011;890;48.158;11.540;2022-08-01T02:38:09;4.00;;;3.60;;
1785;SDS011;890;48.158;11.540;2022-08-01T02:40:37;4.20;;;3.90;;
1785;SDS011;890;48.158;11.540;2022-08-01T02:43:05;4.43;;;4.00;;
1785;SDS011;890;48.158;11.540;2022-08-01T02:45:31;4.27;;;3.97;;
1785;SDS011;890;48.158;11.540;2022-08-01T02:48:01;4.10;;;3.80;;
1785;SDS011;890;48.158;11.540;2022-08-01T02:50:32;4.63;;;3.87;;
1785;SDS011;890;48.158;11.540;2022-08-01T02:53:00;4.60;;;4.20;;
1785;SDS011;890;48.158;11.540;2022-08-01T02:55:27;4.50;;;4.20;;
1785;SDS011;890;48.158;11.540;2022-08-01T02:57:54;4.37;;;4.07;;
1785;SDS011;890;48.158;11.540;2022-08-01T03:00:21;3.40;;;3.10;;
1785;SDS011;890;48.158;11.540;2022-08-01T03:02:48;4.73;;;3.83;;
1785;SDS011;890;48.158;11.540;2022-08-01T03:05:16;4.30;;;3.90;;
1785;SDS011;890;48.158;11.540;2022-08-01T03:07:43;4.67;;;4.30;;
1785;SDS011;890;48.158;11.540;2022-08-01T03:10:10;4.03;;;3.73;;
1785;SDS011;890;48.158;11.540;2022-08-01T03:12:36;5.60;;;3.97;;
1785;SDS011;890;48.158;11.540;2022-08-01T03:15:02;4.30;;;3.90;;
1785;SDS011;890;48.158;11.540;2022-08-01T03:17:29;4.17;;;3.87;;
1785;SDS011;890;48.158;11.540;2022-08-01T03:19:57;4.70;;;4.30;;
1785;SDS011;890;48.158;11.540;2022-08-01T03:22:26;4.90;;;3.70;;
1785;SDS011;890;48.158;11.540;2022-08-01T03:24:54;4.03;;;3.73;;
1785;SDS011;890;48.158;11.540;2022-08-01T03:27:22;3.97;;;3.67;;
1785;SDS011;890;48.158;11.540;2022-08-01T03:29:49;3.83;;;3.53;;
1785;SDS011;890;48.158;11.540;2022-08-01T03:32:16;4.10;;;3.80;;
1785;SDS011;890;48.158;11.540;2022-08-01T03:34:44;4.50;;;4.20;;
1785;SDS011;890;48.158;11.540;2022-08-01T03:39:47;4.50;;;4.20;;
1785;SDS011;890;48.158;11.540;2022-08-01T03:42:16;4.60;;;4.20;;
1785;SDS011;890;48.158;11.540;2022-08-01T03:44:47;4.00;;;3.70;;
1785;SDS011;890;48.158;11.540;2022-08-01T03:47:18;3.63;;;3.33;;
1785;SDS011;890;48.158;11.540;2022-08-01T03:49:48;4.30;;;4.00;;
1785;SDS011;890;48.158;11.540;2022-08-01T03:52:15;4.00;;;3.70;;
1785;SDS011;890;48.158;11.540;2022-08-01T03:54:43;4.30;;;4.00;;
1785;SDS011;890;48.158;11.540;2022-08-01T03:57:12;3.90;;;3.60;;
1785;SDS011;890;48.158;11.540;2022-08-01T03:59:39;5.50;;;3.87;;
1785;SDS011;890;48.158;11.540;2022-08-01T04:02:06;3.97;;;3.67;;
1785;SDS011;890;48.158;11.540;2022-08-01T04:04:32;6.40;;;4.30;;
1785;SDS011;890;48.158;11.540;2022-08-01T04:06:59;4.10;;;3.80;;
1785;SDS011;890;48.158;11.540;2022-08-01T04:09:29;4.60;;;4.30;;
1785;SDS011;890;48.158;11.540;2022-08-01T04:11:56;5.30;;;4.10;;
1785;SDS011;890;48.158;11.540;2022-08-01T04:14:22;4.40;;;4.00;;
1785;SDS011;890;48.158;11.540;2022-08-01T04:16:48;4.40;;;4.10;;
1785;SDS011;890;48.158;11.540;2022-08-01T04:19:14;4.20;;;3.80;;
1785;SDS011;890;48.158;11.540;2022-08-01T04:21:40;3.70;;;3.40;;
1785;SDS011;890;48.158;11.540;2022-08-01T04:24:23;4.60;;;4.20;;
1785;SDS011;890;48.158;11.540;2022-08-01T04:26:50;4.10;;;3.80;;
1785;SDS011;890;48.158;11.540;2022-08-01T04:29:17;4.03;;;3.73;;
1785;SDS011;890;48.158;11.540;2022-08-01T04:31:46;4.53;;;4.13;;
1785;SDS011;890;48.158;11.540;2022-08-01T04:34:15;3.80;;;3.50;;
1785;SDS011;890;48.158;11.540;2022-08-01T04:36:42;4.40;;;4.00;;
1785;SDS011;890;48.158;11.540;2022-08-01T04:39:10;4.30;;;3.90;;
1785;SDS011;890;48.158;11.540;2022-08-01T04:41:36;4.27;;;3.90;;
1785;SDS011;890;48.158;11.540;2022-08-01T04:44:03;4.03;;;3.73;;
1785;SDS011;890;48.158;11.540;2022-08-01T04:46:29;4.20;;;3.90;;
1785;SDS011;890;48.158;11.540;2022-08-01T04:48:58;4.77;;;4.33;;
1785;SDS011;890;48.158;11.540;2022-08-01T04:51:25;3.97;;;3.30;;
1785;SDS011;890;48.158;11.540;2022-08-01T04:53:51;4.43;;;4.03;;
1785;SDS011;890;48.158;11.540;2022-08-01T04:56:17;3.97;;;3.67;;
1785;SDS011;890;48.158;11.540;2022-08-01T04:58:45;4.10;;;3.70;;
1785;SDS011;890;48.158;11.540;2022-08-01T05:01:11;4.00;;;3.60;;
1785;SDS011;890;48.158;11.540;2022-08-01T05:03:38;4.17;;;3.80;;
1785;SDS011;890;48.158;11.540;2022-08-01T05:06:03;3.77;;;3.47;;
1785;SDS011;890;48.158;11.540;2022-08-01T05:08:29;4.03;;;3.73;;
1785;SDS011;890;48.158;11.540;2022-08-01T05:10:55;4.13;;;3.73;;
1785;SDS011;890;48.158;11.540;2022-08-01T05:13:20;4.00;;;3.60;;
1785;SDS011;890;48.158;11.540;2022-08-01T05:15:46;4.50;;;3.70;;
1785;SDS011;890;48.158;11.540;2022-08-01T05:18:12;3.90;;;3.60;;
1785;SDS011;890;48.158;11.540;2022-08-01T05:20:37;4.10;;;3.80;;
1785;SDS011;890;48.158;11.540;2022-08-01T05:23:04;4.33;;;3.93;;
1785;SDS011;890;48.158;11.540;2022-08-01T05:25:29;3.70;;;3.40;;
1785;SDS011;890;48.158;11.540;2022-08-01T05:27:55;4.37;;;3.97;;
1785;SDS011;890;48.158;11.540;2022-08-01T05:30:21;6.77;;;4.20;;
1785;SDS011;890;48.158;11.540;2022-08-01T05:32:46;3.60;;;3.30;;
1785;SDS011;890;48.158;11.540;2022-08-01T05:35:12;5.60;;;4.03;;
1785;SDS011;890;48.158;11.540;2022-08-01T05:37:37;3.63;;;3.30;;
1785;SDS011;890;48.158;11.540;2022-08-01T05:40:03;4.37;;;4.00;;
1785;SDS011;890;48.158;11.540;2022-08-01T05:42:30;5.10;;;4.53;;
1785;SDS011;890;48.158;11.540;2022-08-01T05:44:55;4.70;;;3.13;;
1785;SDS011;890;48.158;11.540;2022-08-01T05:47:21;4.33;;;3.30;;
1785;SDS011;890;48.158;11.540;2022-08-01T05:49:47;3.90;;;3.60;;
1785;SDS011;890;48.158;11.540;2022-08-01T05:52:12;4.07;;;3.73;;
1785;SDS011;890;48.158;11.540;2022-08-01T05:54:38;4.10;;;3.70;;
1785;SDS011;890;48.158;11.540;2022-08-01T05:57:04;5.87;;;3.60;;
1785;SDS011;890;48.158;11.540;2022-08-01T05:59:30;4.30;;;3.70;;
1785;SDS011;890;48.158;11.540;2022-08-01T06:01:56;3.40;;;3.10;;
1785;SDS011;890;48.158;11.540;2022-08-01T06:04:22;3.83;;;3.53;;
1785;SDS011;890;48.158;11.540;2022-08-01T06:06:47;4.10;;;3.70;;
1785;SDS011;890;48.158;11.540;2022-08-01T06:09:13;3.67;;;3.20;;
1785;SDS011;890;48.158;11.540;2022-08-01T06:11:39;3.80;;;3.50;;
1785;SDS011;890;48.158;11.540;2022-08-01T06:14:05;3.97;;;3.57;;
1785;SDS011;890;48.158;11.540;2022-08-01T06:16:30;3.83;;;3.60;;
1785;SDS011;890;48.158;11.540;2022-08-01T06:18:56;3.97;;;3.67;;
1785;SDS011;890;48.158;11.540;2022-08-01T06:21:21;4.17;;;3.20;;
1785;SDS011;890;48.158;11.540;2022-08-01T06:23:47;7.17;;;3.70;;
1785;SDS011;890;48.158;11.540;2022-08-01T06:26:13;4.83;;;4.30;;
1785;SDS011;890;48.158;11.540;2022-08-01T06:28:38;4.03;;;3.70;;
1785;SDS011;890;48.158;11.540;2022-08-01T06:31:04;3.97;;;3.57;;
1785;SDS011;890;48.158;11.540;2022-08-01T06:33:30;3.90;;;3.60;;
1785;SDS011;890;48.158;11.540;2022-08-01T06:35:55;4.10;;;3.70;;
1785;SDS011;890;48.158;11.540;2022-08-01T06:38:21;4.37;;;3.97;;
1785;SDS011;890;48.158;11.540;2022-08-01T06:40:47;3.67;;;3.37;;
1785;SDS011;890;48.158;11.540;2022-08-01T06:43:12;3.80;;;3.50;;
1785;SDS011;890;48.158;11.540;2022-08-01T06:45:39;3.67;;;3.37;;
1785;SDS011;890;48.158;11.540;2022-08-01T06:48:04;4.20;;;3.90;;
1785;SDS011;890;48.158;11.540;2022-08-01T06:50:30;3.60;;;3.30;;
1785;SDS011;890;48.158;11.540;2022-08-01T06:52:56;3.90;;;3.60;;
1785;SDS011;890;48.158;11.540;2022-08-01T06:55:22;3.93;;;3.63;;
1785;SDS011;890;48.158;11.540;2022-08-01T06:57:48;4.90;;;3.80;;
1785;SDS011;890;48.158;11.540;2022-08-01T07:00:15;3.80;;;3.50;;
1785;SDS011;890;48.158;11.540;2022-08-01T07:02:45;4.40;;;4.00;;
1785;SDS011;890;48.158;11.540;2022-08-01T07:05:11;3.57;;;3.33;;
1785;SDS011;890;48.158;11.540;2022-08-01T07:07:38;13.40;;;12.10;;
1785;SDS011;890;48.158;11.540;2022-08-01T07:10:03;5.60;;;5.20;;
1785;SDS011;890;48.158;11.540;2022-08-01T07:12:30;4.30;;;3.60;;
1785;SDS011;890;48.158;11.540;2022-08-01T07:14:55;3.83;;;3.53;;
1785;SDS011;890;48.158;11.540;2022-08-01T07:17:21;4.50;;;4.10;;
1785;SDS011;890;48.158;11.540;2022-08-01T07:19:47;5.87;;;4.10;;
1785;SDS011;890;48.158;11.540;2022-08-01T07:22:13;4.00;;;3.70;;
1785;SDS011;890;48.158;11.540;2022-08-01T07:24:39;4.53;;;4.17;;
1785;SDS011;890;48.158;11.540;2022-08-01T07:27:06;4.30;;;3.80;;
1785;SDS011;890;48.158;11.540;2022-08-01T07:29:32;4.77;;;3.90;;
1785;SDS011;890;48.158;11.540;2022-08-01T07:31:57;3.93;;;3.63;;
1785;SDS011;890;48.158;11.540;2022-08-01T07:34:23;3.87;;;3.57;;
1785;SDS011;890;48.158;11.540;2022-08-01T07:36:50;4.43;;;4.03;;
1785;SDS011;890;48.158;11.540;2022-08-01T07:39:16;4.80;;;4.40;;
1785;SDS011;890;48.158;11.540;2022-08-01T07:41:42;5.67;;;3.80;;
1785;SDS011;890;48.158;11.540;2022-08-01T07:44:08;4.30;;;4.00;;
1785;SDS011;890;48.158;11.540;2022-08-01T07:46:33;4.47;;;4.07;;
1785;SDS011;890;48.158;11.540;2022-08-01T07:48:59;4.20;;;3.80;;
1785;SDS011;890;48.158;11.540;2022-08-01T07:51:25;5.10;;;4.10;;
1785;SDS011;890;48.158;11.540;2022-08-01T07:53:50;6.87;;;4.00;;
1785;SDS011;890;48.158;11.540;2022-08-01T07:56:16;4.17;;;3.87;;
1785;SDS011;890;48.158;11.540;2022-08-01T07:58:42;5.73;;;5.23;;
1785;SDS011;890;48.158;11.540;2022-08-01T08:01:07;4.43;;;4.13;;
1785;SDS011;890;48.158;11.540;2022-08-01T08:03:33;5.10;;;4.00;;
1785;SDS011;890;48.158;11.540;2022-08-01T08:05:58;4.43;;;4.03;;
1785;SDS011;890;48.158;11.540;2022-08-01T08:08:24;4.07;;;3.70;;
1785;SDS011;890;48.158;11.540;2022-08-01T08:10:50;4.60;;;4.20;;
1785;SDS011;890;48.158;11.540;2022-08-01T08:13:16;6.63;;;4.13;;
1785;SDS011;890;48.158;11.540;2022-08-01T08:15:41;4.47;;;3.50;;
1785;SDS011;890;48.158;11.540;2022-08-01T08:18:07;4.60;;;3.90;;
1785;SDS011;890;48.158;11.540;2022-08-01T08:20:32;5.47;;;3.60;;
1785;SDS011;890;48.158;11.540;2022-08-01T08:22:58;4.37;;;4.07;;
1785;SDS011;890;48.158;11.540;2022-08-01T08:25:24;3.80;;;3.50;;
1785;SDS011;890;48.158;11.540;2022-08-01T08:27:51;3.77;;;3.43;;
1785;SDS011;890;48.158;11.540;2022-08-01T08:30:16;3.63;;;3.30;;
1785;SDS011;890;48.158;11.540;2022-08-01T08:32:42;3.80;;;3.50;;
1785;SDS011;890;48.158;11.540;2022-08-01T08:35:08;6.30;;;3.63;;
1785;SDS011;890;48.158;11.540;2022-08-01T08:37:35;4.40;;;3.97;;
1785;SDS011;890;48.158;11.540;2022-08-01T08:40:01;4.40;;;3.83;;
1785;SDS011;890;48.158;11.540;2022-08-01T08:42:28;4.27;;;3.87;;
1785;SDS011;890;48.158;11.540;2022-08-01T08:44:54;4.40;;;4.03;;
1785;SDS011;890;48.158;11.540;2022-08-01T08:47:20;4.37;;;4.00;;
1785;SDS011;890;48.158;11.540;2022-08-01T08:49:48;3.87;;;3.57;;
1785;SDS011;890;48.158;11.540;2022-08-01T08:52:15;4.47;;;3.43;;
1785;SDS011;890;48.158;11.540;2022-08-01T08:54:44;4.00;;;3.70;;
1785;SDS011;890;48.158;11.540;2022-08-01T08:57:10;4.03;;;3.63;;
1785;SDS011;890;48.158;11.540;2022-08-01T08:59:38;3.57;;;3.30;;
1785;SDS011;890;48.158;11.540;2022-08-01T09:02:05;3.87;;;3.53;;
1785;SDS011;890;48.158;11.540;2022-08-01T09:04:31;3.80;;;3.37;;
1785;SDS011;890;48.158;11.540;2022-08-01T09:06:57;3.77;;;3.30;;
1785;SDS011;890;48.158;11.540;2022-08-01T09:09:23;3.60;;;3.40;;
1785;SDS011;890;48.158;11.540;2022-08-01T09:11:49;6.00;;;3.40;;
1785;SDS011;890;48.158;11.540;2022-08-01T09:14:18;3.17;;;2.93;;
1785;SDS011;890;48.158;11.540;2022-08-01T09:16:58;3.63;;;3.30;;
1785;SDS011;890;48.158;11.540;2022-08-01T09:19:36;3.80;;;3.33;;
1785;SDS011;890;48.158;11.540;2022-08-01T09:22:13;3.60;;;3.03;;
1785;SDS011;890;48.158;11.540;2022-08-01T09:24:55;4.07;;;3.77;;
1785;SDS011;890;48.158;11.540;2022-08-01T09:27:22;3.87;;;3.57;;
1785;SDS011;890;48.158;11.540;2022-08-01T09:29:50;4.40;;;3.50;;
1785;SDS011;890;48.158;11.540;2022-08-01T09:32:17;3.57;;;3.27;;
1785;SDS011;890;48.158;11.540;2022-08-01T09:34:43;3.00;;;2.80;;
1785;SDS011;890;48.158;11.540;2022-08-01T09:37:11;2.90;;;2.70;;
1785;SDS011;890;48.158;11.540;2022-08-01T09:39:37;3.50;;;3.20;;
1785;SDS011;890;48.158;11.540;2022-08-01T09:42:24;3.10;;;2.70;;
1785;SDS011;890;48.158;11.540;2022-08-01T09:44:50;2.70;;;2.50;;
1785;SDS011;890;48.158;11.540;2022-08-01T09:47:16;5.10;;;2.50;;
1785;SDS011;890;48.158;11.540;2022-08-01T09:49:45;2.03;;;1.83;;
1785;SDS011;890;48.158;11.540;2022-08-01T09:52:20;2.50;;;2.13;;
1785;SDS011;890;48.158;11.540;2022-08-01T09:54:57;2.43;;;2.23;;
1785;SDS011;890;48.158;11.540;2022-08-01T09:57:24;2.27;;;2.07;;
1785;SDS011;890;48.158;11.540;2022-08-01T09:59:55;2.40;;;2.20;;
1785;SDS011;890;48.158;11.540;2022-08-01T10:02:27;2.30;;;2.10;;
1785;SDS011;890;48.158;11.540;2022-08-01T10:04:58;2.10;;;1.90;;
1785;SDS011;890;48.158;11.540;2022-08-01T10:07:25;2.30;;;1.90;;
1785;SDS011;890;48.158;11.540;2022-08-01T10:09:51;3.17;;;2.30;;
1785;SDS011;890;48.158;11.540;2022-08-01T10:12:17;2.40;;;2.20;;
1785;SDS011;890;48.158;11.540;2022-08-01T10:14:45;2.70;;;2.50;;
1785;SDS011;890;48.158;11.540;2022-08-01T10:17:15;3.40;;;1.70;;
1785;SDS011;890;48.158;11.540;2022-08-01T10:19:42;2.47;;;2.13;;
1785;SDS011;890;48.158;11.540;2022-08-01T10:22:10;2.47;;;2.20;;
1785;SDS011;890;48.158;11.540;2022-08-01T10:24:43;2.50;;;2.30;;
1785;SDS011;890;48.158;11.540;2022-08-01T10:27:11;2.00;;;1.80;;
1785;SDS011;890;48.158;11.540;2022-08-01T10:29:45;2.33;;;1.50;;
1785;SDS011;890;48.158;11.540;2022-08-01T10:32:14;1.70;;;1.47;;
1785;SDS011;890;48.158;11.540;2022-08-01T10:34:41;2.17;;;1.90;;
1785;SDS011;890;48.158;11.540;2022-08-01T10:37:07;2.07;;;1.90;;
1785;SDS011;890;48.158;11.540;2022-08-01T10:39:33;1.90;;;1.80;;
1785;SDS011;890;48.158;11.540;2022-08-01T10:41:59;2.30;;;2.10;;
1785;SDS011;890;48.158;11.540;2022-08-01T10:44:27;1.90;;;1.60;;
1785;SDS011;890;48.158;11.540;2022-08-01T10:46:55;1.80;;;1.70;;
1785;SDS011;890;48.158;11.540;2022-08-01T10:49:28;2.13;;;1.97;;
1785;SDS011;890;48.158;11.540;2022-08-01T10:52:03;1.80;;;1.70;;
1785;SDS011;890;48.158;11.540;2022-08-01T10:54:29;2.20;;;2.00;;
1785;SDS011;890;48.158;11.540;2022-08-01T10:57:04;2.80;;;2.03;;
1785;SDS011;890;48.158;11.540;2022-08-01T10:59:32;2.00;;;1.80;;
1785;SDS011;890;48.158;11.540;2022-08-01T11:01:59;2.17;;;2.03;;
1785;SDS011;890;48.158;11.540;2022-08-01T11:04:33;2.20;;;2.00;;
1785;SDS011;890;48.158;11.540;2022-08-01T11:07:07;2.60;;;2.40;;
1785;SDS011;890;48.158;11.540;2022-08-01T11:09:39;3.13;;;2.20;;
1785;SDS011;890;48.158;11.540;2022-08-01T11:23:15;2.03;;;1.90;;
1785;SDS011;890;48.158;11.540;2022-08-01T11:28:18;2.80;;;2.60;;
1785;SDS011;890;48.158;11.540;2022-08-01T11:30:48;2.40;;;1.97;;
1785;SDS011;890;48.158;11.540;2022-08-01T11:33:47;2.13;;;2.03;;
1785;SDS011;890;48.158;11.540;2022-08-01T11:38:47;1.73;;;1.63;;
1785;SDS011;890;48.158;11.540;2022-08-01T11:41:15;3.70;;;1.87;;
1785;SDS011;890;48.158;11.540;2022-08-01T11:43:58;2.50;;;2.23;;
1785;SDS011;890;48.158;11.540;2022-08-01T11:51:57;2.20;;;1.80;;
1785;SDS011;890;48.158;11.540;2022-08-01T11:54:58;3.63;;;2.00;;
1785;SDS011;890;48.158;11.540;2022-08-01T11:57:31;2.10;;;1.90;;
1785;SDS011;890;48.158;11.540;2022-08-01T12:00:12;4.40;;;1.90;;
1785;SDS011;890;48.158;11.540;2022-08-01T12:02:39;2.07;;;1.60;;
1785;SDS011;890;48.158;11.540;2022-08-01T12:05:06;1.90;;;1.70;;
1785;SDS011;890;48.158;11.540;2022-08-01T12:07:37;3.47;;;1.83;;
1785;SDS011;890;48.158;11.540;2022-08-01T12:10:14;2.30;;;2.10;;
1785;SDS011;890;48.158;11.540;2022-08-01T12:12:48;1.90;;;1.80;;
1785;SDS011;890;48.158;11.540;2022-08-01T12:15:18;2.40;;;1.70;;
1785;SDS011;890;48.158;11.540;2022-08-01T12:18:07;1.90;;;1.80;;
1785;SDS011;890;48.158;11.540;2022-08-01T12:23:00;3.87;;;1.77;;
1785;SDS011;890;48.158;11.540;2022-08-01T12:25:30;1.80;;;1.70;;
1785;SDS011;890;48.158;11.540;2022-08-01T12:28:00;2.40;;;1.83;;
1785;SDS011;890;48.158;11.540;2022-08-01T12:30:30;1.57;;;1.47;;
1785;SDS011;890;48.158;11.540;2022-08-01T12:33:00;2.33;;;1.67;;
1785;SDS011;890;48.158;11.540;2022-08-01T12:35:27;1.77;;;1.67;;
1785;SDS011;890;48.158;11.540;2022-08-01T12:37:54;1.53;;;1.40;;
1785;SDS011;890;48.158;11.540;2022-08-01T12:42:52;1.67;;;1.57;;
1785;SDS011;890;48.158;11.540;2022-08-01T12:45:21;2.30;;;2.03;;
1785;SDS011;890;48.158;11.540;2022-08-01T12:47:52;2.97;;;1.90;;
1785;SDS011;890;48.158;11.540;2022-08-01T12:50:19;2.00;;;1.80;;
1785;SDS011;890;48.158;11.540;2022-08-01T12:52:48;1.70;;;1.40;;
1785;SDS011;890;48.158;11.540;2022-08-01T12:55:15;2.70;;;1.63;;
1785;SDS011;890;48.158;11.540;2022-08-01T12:57:46;1.60;;;1.50;;
1785;SDS011;890;48.158;11.540;2022-08-01T13:00:29;3.40;;;1.90;;
1785;SDS011;890;48.158;11.540;2022-08-01T13:03:05;1.70;;;1.60;;
1785;SDS011;890;48.158;11.540;2022-08-01T13:08:16;2.47;;;1.40;;
1785;SDS011;890;48.158;11.540;2022-08-01T13:10:44;2.57;;;1.70;;
1785;SDS011;890;48.158;11.540;2022-08-01T13:13:10;1.83;;;1.73;;
1785;SDS011;890;48.158;11.540;2022-08-01T13:15:38;2.13;;;1.90;;
1785;SDS011;890;48.158;11.540;2022-08-01T13:23:37;2.00;;;1.80;;
1785;SDS011;890;48.158;11.540;2022-08-01T13:26:04;2.17;;;1.70;;
1785;SDS011;890;48.158;11.540;2022-08-01T13:28:30;1.80;;;1.70;;
1785;SDS011;890;48.158;11.540;2022-08-01T13:31:04;2.07;;;1.90;;
1785;SDS011;890;48.158;11.540;2022-08-01T13:33:42;1.90;;;1.80;;
1785;SDS011;890;48.158;11.540;2022-08-01T13:36:09;2.77;;;2.00;;
1785;SDS011;890;48.158;11.540;2022-08-01T13:38:35;2.40;;;2.10;;
1785;SDS011;890;48.158;11.540;2022-08-01T13:41:19;2.30;;;1.97;;
1785;SDS011;890;48.158;11.540;2022-08-01T13:43:45;2.90;;;1.60;;
1785;SDS011;890;48.158;11.540;2022-08-01T13:46:11;1.53;;;1.43;;
1785;SDS011;890;48.158;11.540;2022-08-01T13:48:37;1.83;;;1.70;;
1785;SDS011;890;48.158;11.540;2022-08-01T13:51:02;1.57;;;1.13;;
1785;SDS011;890;48.158;11.540;2022-08-01T13:53:28;1.20;;;1.10;;
1785;SDS011;890;48.158;11.540;2022-08-01T13:55:54;1.43;;;1.33;;
1785;SDS011;890;48.158;11.540;2022-08-01T13:58:19;1.53;;;1.40;;
1785;SDS011;890;48.158;11.540;2022-08-01T14:00:45;1.40;;;1.30;;
1785;SDS011;890;48.158;11.540;2022-08-01T14:03:11;1.53;;;1.43;;
1785;SDS011;890;48.158;11.540;2022-08-01T14:05:37;3.40;;;1.57;;
1785;SDS011;890;48.158;11.540;2022-08-01T14:08:03;3.03;;;1.60;;
1785;SDS011;890;48.158;11.540;2022-08-01T14:10:29;1.80;;;1.60;;
1785;SDS011;890;48.158;11.540;2022-08-01T14:12:55;1.80;;;1.70;;
1785;SDS011;890;48.158;11.540;2022-08-01T14:15:22;2.50;;;1.57;;
1785;SDS011;890;48.158;11.540;2022-08-01T14:17:48;2.10;;;1.70;;
1785;SDS011;890;48.158;11.540;2022-08-01T14:20:14;3.70;;;1.73;;
1785;SDS011;890;48.158;11.540;2022-08-01T14:22:39;2.20;;;2.00;;
1785;SDS011;890;48.158;11.540;2022-08-01T14:25:05;2.93;;;2.27;;
1785;SDS011;890;48.158;11.540;2022-08-01T14:27:31;2.30;;;2.10;;
1785;SDS011;890;48.158;11.540;2022-08-01T14:30:01;2.67;;;1.80;;
1785;SDS011;890;48.158;11.540;2022-08-01T14:32:27;2.00;;;1.50;;
1785;SDS011;890;48.158;11.540;2022-08-01T14:34:53;2.63;;;2.03;;
1785;SDS011;890;48.158;11.540;2022-08-01T14:37:18;2.80;;;2.07;;
1785;SDS011;890;48.158;11.540;2022-08-01T14:39:44;2.60;;;1.60;;
1785;SDS011;890;48.158;11.540;2022-08-01T14:42:09;1.90;;;1.80;;
1785;SDS011;890;48.158;11.540;2022-08-01T14:44:35;2.30;;;2.10;;
1785;SDS011;890;48.158;11.540;2022-08-01T14:47:01;2.70;;;2.10;;
1785;SDS011;890;48.158;11.540;2022-08-01T14:49:26;1.70;;;1.60;;
1785;SDS011;890;48.158;11.540;2022-08-01T14:51:52;2.00;;;1.90;;
1785;SDS011;890;48.158;11.540;2022-08-01T14:54:18;2.53;;;2.10;;
1785;SDS011;890;48.158;11.540;2022-08-01T14:56:44;2.93;;;2.63;;
1785;SDS011;890;48.158;11.540;2022-08-01T14:59:09;5.10;;;4.60;;
1785;SDS011;890;48.158;11.540;2022-08-01T15:01:35;5.23;;;3.53;;
1785;SDS011;890;48.158;11.540;2022-08-01T15:04:00;6.40;;;2.47;;
1785;SDS011;890;48.158;11.540;2022-08-01T15:06:26;3.00;;;2.33;;
1785;SDS011;890;48.158;11.540;2022-08-01T15:08:51;5.20;;;2.40;;
1785;SDS011;890;48.158;11.540;2022-08-01T15:11:17;2.80;;;2.50;;
1785;SDS011;890;48.158;11.540;2022-08-01T15:13:42;2.50;;;2.30;;
1785;SDS011;890;48.158;11.540;2022-08-01T15:16:09;3.27;;;2.17;;
1785;SDS011;890;48.158;11.540;2022-08-01T15:18:35;4.27;;;2.23;;
1785;SDS011;890;48.158;11.540;2022-08-01T15:21:00;3.30;;;2.30;;
1785;SDS011;890;48.158;11.540;2022-08-01T15:23:26;7.90;;;2.67;;
1785;SDS011;890;48.158;11.540;2022-08-01T15:25:51;4.20;;;2.57;;
1785;SDS011;890;48.158;11.540;2022-08-01T15:28:17;4.00;;;2.43;;
1785;SDS011;890;48.158;11.540;2022-08-01T15:30:44;4.37;;;2.70;;
1785;SDS011;890;48.158;11.540;2022-08-01T15:33:10;2.33;;;2.13;;
1785;SDS011;890;48.158;11.540;2022-08-01T15:35:35;2.90;;;2.60;;
1785;SDS011;890;48.158;11.540;2022-08-01T15:38:01;4.63;;;2.90;;
1785;SDS011;890;48.158;11.540;2022-08-01T15:40:27;3.20;;;2.90;;
1785;SDS011;890;48.158;11.540;2022-08-01T15:42:53;3.10;;;2.83;;
1785;SDS011;890;48.158;11.540;2022-08-01T15:45:18;2.67;;;2.43;;
1785;SDS011;890;48.158;11.540;2022-08-01T15:47:45;2.40;;;2.20;;
1785;SDS011;890;48.158;11.540;2022-08-01T15:50:11;4.43;;;2.43;;
1785;SDS011;890;48.158;11.540;2022-08-01T15:52:37;5.70;;;3.10;;
1785;SDS011;890;48.158;11.540;2022-08-01T15:55:03;3.10;;;2.80;;
1785;SDS011;890;48.158;11.540;2022-08-01T15:57:29;3.03;;;2.30;;
1785;SDS011;890;48.158;11.540;2022-08-01T15:59:54;2.63;;;2.43;;
1785;SDS011;890;48.158;11.540;2022-08-01T16:02:20;2.90;;;2.70;;
1785;SDS011;890;48.158;11.540;2022-08-01T16:04:45;3.20;;;2.50;;
1785;SDS011;890;48.158;11.540;2022-08-01T16:07:11;2.40;;;2.20;;